createdAt,value
2023-04-25T00:01:57.772Z,99.90
2023-04-25T00:04:24.952Z,1.00
2023-04-25T00:06:53.321Z,1.00
2023-04-25T00:09:20.321Z,1.00
2023-04-25T00:11:47.162Z,1.00
2023-04-25T00:14:14.188Z,1.00
2023-04-25T00:16:42.426Z,99.90
2023-04-25T00:19:10.586Z,1.00
2023-04-25T00:21:41.366Z,1.00
2023-04-25T00:24:08.804Z,1.00
2023-04-25T00:26:36.898Z,1.00
2023-04-25T00:29:03.873Z,1.00
2023-04-25T00:31:31.531Z,1.00
2023-04-25T00:33:58.476Z,98.70
2023-04-25T00:36:26.113Z,99.90
2023-04-25T00:38:55.595Z,99.20
2023-04-25T00:41:22.724Z,1.00
2023-04-25T00:43:51.034Z,99.90
2023-04-25T00:46:18.002Z,99.90
2023-04-25T00:48:44.839Z,99.90
2023-04-25T00:51:16.851Z,1.00
2023-04-25T00:53:44.008Z,99.90
2023-04-25T00:56:10.945Z,1.00
2023-04-25T00:58:38.410Z,1.00
2023-04-25T01:01:05.558Z,1.00
2023-04-25T01:03:36.687Z,1.00
2023-04-25T01:06:03.980Z,1.00
2023-04-25T01:08:31.274Z,99.90
2023-04-25T01:10:58.045Z,76.80
2023-04-25T01:13:24.882Z,1.00
2023-04-25T01:15:51.832Z,1.00
2023-04-25T01:18:19.827Z,99.90
2023-04-25T01:20:47.662Z,99.90
2023-04-25T01:23:15.507Z,1.00
2023-04-25T01:25:42.736Z,99.90
2023-04-25T01:28:10.029Z,99.90
2023-04-25T01:30:37.032Z,99.90
2023-04-25T01:33:06.378Z,1.00
2023-04-25T01:35:33.295Z,1.00
2023-04-25T01:38:00.856Z,1.00
2023-04-25T01:40:29.191Z,99.90
2023-04-25T01:42:56.065Z,1.00
2023-04-25T01:45:22.941Z,1.00
2023-04-25T01:47:50.924Z,1.00
2023-04-25T01:50:20.370Z,99.90
2023-04-25T01:52:47.151Z,99.90
2023-04-25T01:55:14.109Z,1.00
2023-04-25T01:57:41.012Z,99.90
2023-04-25T02:00:09.599Z,1.00
2023-04-25T02:02:36.979Z,99.90
2023-04-25T02:05:04.117Z,1.00
2023-04-25T02:07:31.241Z,1.00
2023-04-25T02:09:58.100Z,1.00
2023-04-25T02:12:27.245Z,1.00
2023-04-25T02:14:54.220Z,1.00
2023-04-25T02:17:22.570Z,1.00
2023-04-25T02:19:49.599Z,1.00
2023-04-25T02:22:16.629Z,1.00
2023-04-25T02:24:43.535Z,1.00
2023-04-25T02:27:10.957Z,1.00
2023-04-25T02:29:37.837Z,1.00
2023-04-25T02:32:05.391Z,90.80
2023-04-25T02:34:32.294Z,99.90
2023-04-25T02:36:59.137Z,1.00
2023-04-25T02:39:28.097Z,1.00
2023-04-25T02:41:54.924Z,99.90
2023-04-25T02:44:21.775Z,1.00
2023-04-25T02:46:48.602Z,1.00
2023-04-25T02:49:15.700Z,1.00
2023-04-25T02:51:42.639Z,99.90
2023-04-25T02:54:09.557Z,1.00
2023-04-25T02:56:36.433Z,1.00
2023-04-25T02:59:03.318Z,99.90
2023-04-25T03:01:30.393Z,99.90
2023-04-25T03:03:57.502Z,99.90
2023-04-25T03:06:24.305Z,1.00
2023-04-25T03:08:51.366Z,1.00
2023-04-25T03:11:18.257Z,1.00
2023-04-25T03:13:45.112Z,1.00
2023-04-25T03:16:12.125Z,22.40
2023-04-25T03:18:38.899Z,1.00
2023-04-25T03:21:05.853Z,99.90
2023-04-25T03:23:32.645Z,1.00
2023-04-25T03:25:59.523Z,1.00
2023-04-25T03:28:26.619Z,99.90
2023-04-25T03:30:53.390Z,99.90
2023-04-25T03:33:20.676Z,1.00
2023-04-25T03:35:47.522Z,99.90
2023-04-25T03:38:14.502Z,99.90
2023-04-25T03:40:41.260Z,99.90
2023-04-25T03:43:08.358Z,99.90
2023-04-25T03:45:35.213Z,99.90
2023-04-25T03:48:02.114Z,99.90
2023-04-25T03:50:29.040Z,99.90
2023-04-25T03:52:55.874Z,99.90
2023-04-25T03:55:22.739Z,99.90
2023-04-25T03:57:49.590Z,99.90
2023-04-25T04:00:16.573Z,99.90
2023-04-25T04:02:45.323Z,99.90
2023-04-25T04:05:12.886Z,99.90
2023-04-25T04:07:41.225Z,99.90
2023-04-25T04:10:08.906Z,99.90
2023-04-25T04:12:35.831Z,99.90
2023-04-25T04:15:07.563Z,99.90
2023-04-25T04:17:34.892Z,99.90
2023-04-25T04:20:01.801Z,99.90
2023-04-25T04:22:28.696Z,99.90
2023-04-25T04:24:55.618Z,99.90
2023-04-25T04:27:22.827Z,99.90
2023-04-25T04:29:49.977Z,99.90
2023-04-25T04:32:17.290Z,99.90
2023-04-25T04:34:44.106Z,99.90
2023-04-25T04:37:11.450Z,99.90
2023-04-25T04:39:38.309Z,99.90
2023-04-25T04:42:06.077Z,99.90
2023-04-25T04:44:36.463Z,99.90
2023-04-25T04:47:07.272Z,99.90
2023-04-25T04:49:34.527Z,99.90
2023-04-25T04:52:01.786Z,1.00
2023-04-25T04:54:28.649Z,1.00
2023-04-25T04:56:55.788Z,1.00
2023-04-25T04:59:23.912Z,1.00
2023-04-25T05:01:51.013Z,99.90
2023-04-25T05:04:17.936Z,99.90
2023-04-25T05:06:47.483Z,99.90
2023-04-25T05:09:16.225Z,99.90
2023-04-25T05:11:43.237Z,1.00
2023-04-25T05:14:10.086Z,1.00
2023-04-25T05:16:37.068Z,1.00
2023-04-25T05:19:04.003Z,1.00
2023-04-25T05:21:30.885Z,1.00
2023-04-25T05:23:57.724Z,99.90
2023-04-25T05:26:25.139Z,99.90
2023-04-25T05:28:52.153Z,33.30
2023-04-25T05:31:18.950Z,43.80
2023-04-25T05:33:45.843Z,26.80
2023-04-25T05:36:12.751Z,1.00
2023-04-25T05:38:39.536Z,13.10
2023-04-25T05:41:06.467Z,1.00
2023-04-25T05:43:33.289Z,1.00
2023-04-25T05:46:00.511Z,1.00
2023-04-25T05:48:27.348Z,1.00
2023-04-25T05:50:54.199Z,99.90
2023-04-25T05:53:22.938Z,99.90
2023-04-25T05:55:49.713Z,99.90
2023-04-25T05:58:16.545Z,99.90
2023-04-25T06:00:43.536Z,1.00
2023-04-25T06:03:11.180Z,99.90
2023-04-25T06:05:38.205Z,99.90
2023-04-25T06:08:05.413Z,99.90
2023-04-25T06:10:32.270Z,99.90
2023-04-25T06:12:59.100Z,36.60
2023-04-25T06:15:28.398Z,1.00
2023-04-25T06:17:56.454Z,1.00
2023-04-25T06:20:25.416Z,1.00
2023-04-25T06:22:52.856Z,42.90
2023-04-25T06:25:19.759Z,1.00
2023-04-25T06:27:46.702Z,1.00
2023-04-25T06:30:13.865Z,1.00
2023-04-25T06:32:41.039Z,1.00
2023-04-25T06:35:08.189Z,1.00
2023-04-25T06:37:35.203Z,1.00
2023-04-25T06:40:02.153Z,1.00
2023-04-25T06:42:29.192Z,1.00
2023-04-25T06:44:56.728Z,1.00
2023-04-25T06:47:23.543Z,1.00
2023-04-25T06:49:51.109Z,1.00
2023-04-25T06:52:19.074Z,1.00
2023-04-25T06:54:46.398Z,1.00
2023-04-25T06:57:13.215Z,1.00
2023-04-25T06:59:40.068Z,1.00
2023-04-25T07:02:07.203Z,1.00
2023-04-25T07:04:34.196Z,1.00
2023-04-25T07:07:03.665Z,1.00
2023-04-25T07:09:30.983Z,1.00
2023-04-25T07:11:57.874Z,1.00
2023-04-25T07:14:25.116Z,1.00
2023-04-25T07:16:52.055Z,1.00
2023-04-25T07:19:18.973Z,1.00
2023-04-25T07:21:45.946Z,1.00
2023-04-25T07:24:12.909Z,1.00
2023-04-25T07:26:39.816Z,1.00
2023-04-25T07:29:06.675Z,1.00
2023-04-25T07:31:33.583Z,1.00
2023-04-25T07:34:01.991Z,1.00
2023-04-25T07:36:29.189Z,1.00
2023-04-25T07:38:55.998Z,1.00
2023-04-25T07:41:22.747Z,1.00
2023-04-25T07:43:49.757Z,1.00
2023-04-25T07:46:16.639Z,1.00
2023-04-25T07:48:43.450Z,1.00
2023-04-25T07:51:10.304Z,1.00
2023-04-25T07:53:38.651Z,1.00
2023-04-25T07:56:06.012Z,1.00
2023-04-25T07:58:32.943Z,1.00
2023-04-25T08:00:59.976Z,1.00
2023-04-25T08:03:27.020Z,1.00
2023-04-25T08:05:54.103Z,1.00
2023-04-25T08:08:21.216Z,1.00
2023-04-25T08:10:49.349Z,1.00
2023-04-25T08:13:16.498Z,1.00
2023-04-25T08:15:43.376Z,1.00
2023-04-25T08:18:10.452Z,1.00
2023-04-25T08:20:37.339Z,1.00
2023-04-25T08:23:04.174Z,1.00
2023-04-25T08:25:31.037Z,1.00
2023-04-25T08:27:58.239Z,1.00
2023-04-25T08:30:25.206Z,1.00
2023-04-25T08:32:52.379Z,1.00
2023-04-25T08:35:19.408Z,1.00
2023-04-25T08:37:46.398Z,1.00
2023-04-25T08:40:15.686Z,1.00
2023-04-25T08:42:43.219Z,1.00
2023-04-25T08:45:10.987Z,1.00
2023-04-25T08:47:39.848Z,1.00
2023-04-25T08:50:07.925Z,1.00
2023-04-25T08:52:42.088Z,1.00
2023-04-25T08:55:12.677Z,1.00
2023-04-25T08:57:40.576Z,1.00
2023-04-25T09:00:09.131Z,1.00
2023-04-25T09:02:36.792Z,1.00
2023-04-25T09:05:05.324Z,1.00
2023-04-25T09:07:32.159Z,1.00
2023-04-25T09:10:00.952Z,1.00
2023-04-25T09:12:29.985Z,1.00
2023-04-25T09:15:08.358Z,1.00
2023-04-25T09:17:35.505Z,1.00
2023-04-25T09:20:14.125Z,1.00
2023-04-25T09:22:41.261Z,1.00
2023-04-25T09:25:12.960Z,1.00
2023-04-25T09:27:57.038Z,1.00
2023-04-25T09:30:32.154Z,1.00
2023-04-25T09:33:07.201Z,1.00
2023-04-25T09:36:04.359Z,1.00
2023-04-25T09:38:32.752Z,1.00
2023-04-25T09:41:00.005Z,1.00
2023-04-25T09:43:27.638Z,1.00
2023-04-25T09:45:59.057Z,1.00
2023-04-25T09:48:28.153Z,1.00
2023-04-25T09:51:11.712Z,1.00
2023-04-25T09:53:43.632Z,1.00
2023-04-25T09:56:12.148Z,1.00
2023-04-25T09:58:41.359Z,1.00
2023-04-25T10:01:10.511Z,1.00
2023-04-25T10:03:42.803Z,1.00
2023-04-25T10:06:18.694Z,1.00
2023-04-25T10:08:46.651Z,1.00
2023-04-25T10:11:16.931Z,1.00
2023-04-25T10:13:44.666Z,1.00
2023-04-25T10:16:11.820Z,1.00
2023-04-25T10:18:38.642Z,1.00
2023-04-25T10:21:07.382Z,1.00
2023-04-25T10:23:38.042Z,1.00
2023-04-25T10:26:05.125Z,1.00
2023-04-25T10:28:58.766Z,1.00
2023-04-25T10:31:25.961Z,1.00
2023-04-25T10:33:53.364Z,1.00
2023-04-25T10:36:25.487Z,1.00
2023-04-25T10:38:53.702Z,1.00
2023-04-25T10:41:22.225Z,1.00
2023-04-25T10:43:50.622Z,1.00
2023-04-25T10:46:27.528Z,1.00
2023-04-25T10:49:03.138Z,1.00
2023-04-25T10:51:53.967Z,1.00
2023-04-25T10:54:26.128Z,1.00
2023-04-25T10:56:54.272Z,1.00
2023-04-25T10:59:25.884Z,1.00
2023-04-25T11:01:55.649Z,1.00
2023-04-25T11:04:31.154Z,1.00
2023-04-25T11:07:16.960Z,1.00
2023-04-25T11:09:46.524Z,1.00
2023-04-25T11:12:14.130Z,1.00
2023-04-25T11:17:12.920Z,1.00
2023-04-25T11:19:39.829Z,1.00
2023-04-25T11:22:07.792Z,1.00
2023-04-25T11:24:36.412Z,1.00
2023-04-25T11:27:04.981Z,1.00
2023-04-25T11:29:33.141Z,1.00
2023-04-25T11:32:02.173Z,1.00
2023-04-25T11:34:34.292Z,1.00
2023-04-25T11:37:02.857Z,1.00
2023-04-25T11:39:30.418Z,1.00
2023-04-25T11:41:57.424Z,1.00
2023-04-25T11:44:24.698Z,1.00
2023-04-25T11:46:51.461Z,1.00
2023-04-25T11:49:23.108Z,99.90
2023-04-25T11:51:50.243Z,99.90
2023-04-25T11:54:17.664Z,99.90
2023-04-25T11:56:45.857Z,99.90
2023-04-25T11:59:14.186Z,99.90
2023-04-25T12:01:49.895Z,99.90
2023-04-25T12:04:16.853Z,99.90
2023-04-25T12:06:47.627Z,99.90
2023-04-25T12:09:16.798Z,99.90
2023-04-25T12:11:53.866Z,99.90
2023-04-25T12:14:28.286Z,99.90
2023-04-25T12:17:00.573Z,99.90
2023-04-25T12:19:32.661Z,99.90
2023-04-25T12:22:00.961Z,99.90
2023-04-25T12:24:28.689Z,1.00
2023-04-25T12:27:05.862Z,1.00
2023-04-25T12:29:48.778Z,1.00
2023-04-25T12:32:16.942Z,1.00
2023-04-25T12:34:44.040Z,1.00
2023-04-25T12:37:11.418Z,1.00
2023-04-25T12:39:38.590Z,1.00
2023-04-25T12:42:07.026Z,1.00
2023-04-25T12:44:36.043Z,1.00
2023-04-25T12:47:04.228Z,1.00
2023-04-25T12:49:31.514Z,1.00
2023-04-25T12:51:58.763Z,1.00
2023-04-25T12:54:26.528Z,1.00
2023-04-25T12:56:53.746Z,1.00
2023-04-25T12:59:21.564Z,1.00
2023-04-25T13:01:48.590Z,1.00
2023-04-25T13:04:16.227Z,1.00
2023-04-25T13:06:43.648Z,1.00
2023-04-25T13:09:10.740Z,1.00
2023-04-25T13:11:37.620Z,1.00
2023-04-25T13:14:05.727Z,1.00
2023-04-25T13:16:33.229Z,1.00
2023-04-25T13:19:00.153Z,1.00
2023-04-25T13:21:28.042Z,1.00
2023-04-25T13:23:55.241Z,1.00
2023-04-25T13:26:22.444Z,1.00
2023-04-25T13:28:49.295Z,1.00
2023-04-25T13:31:16.453Z,1.00
2023-04-25T13:33:44.061Z,1.00
2023-04-25T13:36:11.171Z,1.00
2023-04-25T13:38:38.176Z,1.00
2023-04-25T13:41:05.202Z,1.00
2023-04-25T13:43:33.421Z,1.00
2023-04-25T13:46:00.754Z,1.00
2023-04-25T13:48:27.800Z,1.00
2023-04-25T13:50:54.618Z,1.00
2023-04-25T13:53:22.149Z,1.00
2023-04-25T13:55:49.009Z,1.00
2023-04-25T13:58:15.836Z,1.00
2023-04-25T14:00:44.551Z,1.00
2023-04-25T14:03:11.682Z,1.00
2023-04-25T14:05:42.049Z,1.00
2023-04-25T14:08:10.577Z,1.00
2023-04-25T14:10:38.013Z,1.00
2023-04-25T14:13:06.705Z,1.00
2023-04-25T14:15:35.603Z,1.00
2023-04-25T14:18:03.138Z,1.00
2023-04-25T14:20:30.574Z,1.00
2023-04-25T14:22:59.229Z,1.00
2023-04-25T14:25:26.661Z,1.00
2023-04-25T14:27:53.798Z,1.00
2023-04-25T14:30:21.967Z,1.00
2023-04-25T14:32:50.669Z,1.00
2023-04-25T14:35:18.030Z,1.00
2023-04-25T14:37:45.163Z,1.00
2023-04-25T14:40:14.124Z,1.00
2023-04-25T14:42:41.423Z,1.00
2023-04-25T14:45:09.758Z,99.90
2023-04-25T14:47:37.803Z,99.90
2023-04-25T14:50:05.687Z,99.90
2023-04-25T14:52:32.708Z,99.90
2023-04-25T14:55:01.455Z,99.90
2023-04-25T14:57:28.305Z,99.90
2023-04-25T14:59:55.404Z,99.90
2023-04-25T15:02:22.659Z,99.90
2023-04-25T15:04:49.808Z,99.90
2023-04-25T15:07:18.453Z,99.90
2023-04-25T15:09:45.468Z,99.90
2023-04-25T15:12:13.097Z,99.90
2023-04-25T15:14:39.995Z,99.90
2023-04-25T15:17:07.272Z,99.90
2023-04-25T15:19:34.109Z,99.90
2023-04-25T15:22:04.039Z,99.90
2023-04-25T15:24:31.128Z,99.90
2023-04-25T15:26:57.929Z,99.90
2023-04-25T15:29:25.578Z,99.90
2023-04-25T15:31:52.923Z,99.90
2023-04-25T15:34:19.834Z,99.90
2023-04-25T15:36:46.636Z,99.90
2023-04-25T15:39:13.514Z,99.90
2023-04-25T15:41:40.453Z,99.90
2023-04-25T15:44:08.068Z,99.90
2023-04-25T15:46:35.073Z,99.90
2023-04-25T15:49:02.874Z,99.90
2023-04-25T15:51:30.025Z,1.00
2023-04-25T15:53:57.010Z,99.90
2023-04-25T15:56:24.191Z,99.90
2023-04-25T15:58:51.707Z,99.90
2023-04-25T16:01:18.542Z,99.90
2023-04-25T16:03:45.532Z,99.90
2023-04-25T16:06:12.502Z,1.00
2023-04-25T16:08:40.097Z,99.90
2023-04-25T16:11:06.924Z,99.90
2023-04-25T16:13:35.216Z,99.90
2023-04-25T16:16:02.404Z,99.90
2023-04-25T16:18:29.348Z,99.90
2023-04-25T16:20:56.377Z,99.90
2023-04-25T16:23:23.362Z,99.90
2023-04-25T16:25:50.809Z,1.00
2023-04-25T16:28:17.892Z,1.00
2023-04-25T16:30:44.799Z,1.00
2023-04-25T16:33:11.801Z,1.00
2023-04-25T16:35:38.707Z,1.00
2023-04-25T16:38:05.660Z,1.00
2023-04-25T16:40:32.509Z,1.00
2023-04-25T16:42:59.346Z,1.00
2023-04-25T16:45:26.833Z,1.00
2023-04-25T16:47:53.715Z,1.00
2023-04-25T16:50:20.703Z,1.00
2023-04-25T16:52:47.627Z,1.00
2023-04-25T16:55:14.530Z,99.90
2023-04-25T16:57:41.356Z,99.90
2023-04-25T17:00:13.652Z,99.90
2023-04-25T17:02:40.698Z,1.00
2023-04-25T17:05:08.004Z,1.00
2023-04-25T17:07:35.056Z,1.00
2023-04-25T17:10:01.919Z,1.00
2023-04-25T17:12:28.813Z,1.00
2023-04-25T17:14:55.713Z,1.00
2023-04-25T17:17:22.574Z,1.00
2023-04-25T17:19:49.367Z,1.00
2023-04-25T17:22:16.661Z,1.00
2023-04-25T17:24:43.512Z,1.00
2023-04-25T17:27:11.279Z,1.00
2023-04-25T17:29:38.084Z,1.00
2023-04-25T17:32:05.116Z,1.00
2023-04-25T17:34:32.003Z,1.00
2023-04-25T17:36:58.844Z,1.00
2023-04-25T17:39:25.707Z,1.00
2023-04-25T17:41:52.764Z,1.00
2023-04-25T17:44:19.551Z,1.00
2023-04-25T17:46:46.626Z,1.00
2023-04-25T17:49:13.508Z,1.00
2023-04-25T17:51:40.374Z,1.00
2023-04-25T17:54:08.324Z,1.00
2023-04-25T17:56:39.253Z,1.00
2023-04-25T17:59:06.224Z,1.00
2023-04-25T18:01:33.242Z,1.00
2023-04-25T18:04:00.864Z,1.00
2023-04-25T18:06:28.330Z,1.00
2023-04-25T18:08:57.272Z,1.00
2023-04-25T18:11:24.673Z,1.00
2023-04-25T18:13:51.750Z,1.00
2023-04-25T18:16:18.677Z,1.00
2023-04-25T18:18:52.790Z,1.00
2023-04-25T18:21:20.514Z,1.00
2023-04-25T18:23:47.656Z,1.00
2023-04-25T18:26:15.869Z,1.00
2023-04-25T18:28:42.828Z,1.00
2023-04-25T18:31:09.704Z,1.00
2023-04-25T18:33:36.585Z,1.00
2023-04-25T18:36:03.519Z,1.00
2023-04-25T18:41:10.721Z,1.00
2023-04-25T18:43:47.038Z,1.00
2023-04-25T18:46:13.942Z,1.00
2023-04-25T18:48:40.692Z,1.00
2023-04-25T18:51:07.696Z,1.00
2023-04-25T18:53:34.727Z,1.00
2023-04-25T18:56:01.651Z,1.00
2023-04-25T18:58:28.540Z,1.00
2023-04-25T19:00:55.605Z,1.00
2023-04-25T19:03:22.893Z,1.00
2023-04-25T19:05:49.853Z,1.00
2023-04-25T19:08:16.790Z,1.00
2023-04-25T19:10:44.044Z,1.00
2023-04-25T19:13:11.126Z,1.00
2023-04-25T19:15:38.068Z,1.00
2023-04-25T19:18:05.179Z,1.00
2023-04-25T19:20:34.158Z,1.00
2023-04-25T19:23:01.135Z,1.00
2023-04-25T19:25:28.084Z,1.00
2023-04-25T19:27:54.923Z,1.00
2023-04-25T19:30:21.925Z,1.00
2023-04-25T19:32:49.295Z,1.00
2023-04-25T19:35:16.115Z,1.00
2023-04-25T19:37:46.479Z,1.00
2023-04-25T19:40:14.957Z,1.00
2023-04-25T19:42:42.002Z,1.00
2023-04-25T19:45:10.522Z,1.00
2023-04-25T19:47:40.466Z,1.00
2023-04-25T19:50:08.599Z,1.00
2023-04-25T19:52:36.258Z,1.00
2023-04-25T19:55:05.028Z,1.00
2023-04-25T19:57:33.519Z,1.00
2023-04-25T20:00:04.956Z,1.00
2023-04-25T20:02:31.855Z,1.00
2023-04-25T20:04:58.838Z,1.00
2023-04-25T20:07:26.672Z,1.00
2023-04-25T20:09:53.452Z,1.00
2023-04-25T20:12:20.472Z,1.00
2023-04-25T20:14:47.321Z,1.00
2023-04-25T20:17:14.930Z,1.00
2023-04-25T20:19:42.206Z,1.00
2023-04-25T20:22:08.992Z,1.00
2023-04-25T20:24:35.964Z,1.00
2023-04-25T20:27:03.027Z,1.00
2023-04-25T20:29:29.823Z,1.00
2023-04-25T20:31:56.703Z,1.00
2023-04-25T20:34:25.269Z,1.00
2023-04-25T20:36:52.977Z,1.00
2023-04-25T20:39:21.726Z,1.00
2023-04-25T20:41:48.509Z,1.00
2023-04-25T20:44:15.434Z,1.00
2023-04-25T20:46:42.266Z,1.00
2023-04-25T20:49:09.031Z,1.00
2023-04-25T20:51:36.975Z,1.00
2023-04-25T20:54:04.054Z,1.00
2023-04-25T20:56:31.169Z,1.00
2023-04-25T20:58:58.385Z,1.00
2023-04-25T21:01:25.486Z,1.00
2023-04-25T21:03:52.897Z,1.00
2023-04-25T21:06:20.208Z,1.00
2023-04-25T21:08:47.051Z,1.00
2023-04-25T21:11:14.310Z,1.00
2023-04-25T21:13:41.070Z,1.00
2023-04-25T21:16:07.936Z,1.00
2023-04-25T21:18:34.877Z,1.00
2023-04-25T21:21:04.273Z,1.00
2023-04-25T21:23:31.855Z,1.00
2023-04-25T21:25:58.767Z,1.00
2023-04-25T21:28:26.090Z,1.00
2023-04-25T21:30:53.270Z,1.00
2023-04-25T21:33:20.256Z,1.00
2023-04-25T21:35:47.575Z,1.00
2023-04-25T21:38:15.670Z,1.00
2023-04-25T21:40:42.551Z,1.00
2023-04-25T21:43:09.388Z,1.00
2023-04-25T21:45:44.567Z,1.00
2023-04-25T21:48:23.135Z,1.00
2023-04-25T21:50:50.099Z,1.00
2023-04-25T21:53:16.839Z,1.00
2023-04-25T21:55:43.638Z,1.00
2023-04-25T21:58:10.469Z,1.00
2023-04-25T22:00:37.926Z,1.00
2023-04-25T22:03:05.090Z,1.00
2023-04-25T22:05:32.475Z,1.00
2023-04-25T22:07:59.328Z,1.00
2023-04-25T22:10:26.310Z,1.00
2023-04-25T22:12:53.264Z,1.00
2023-04-25T22:15:22.417Z,1.00
2023-04-25T22:17:55.137Z,1.00
2023-04-25T22:20:26.358Z,1.00
2023-04-25T22:26:34.654Z,1.00
2023-04-25T22:29:01.612Z,1.00
2023-04-25T22:31:29.046Z,1.00
2023-04-25T22:33:55.958Z,1.00
2023-04-25T22:36:24.097Z,1.00
2023-04-25T22:38:52.706Z,1.00
2023-04-25T22:41:20.690Z,99.90
2023-04-25T22:43:47.464Z,1.00
2023-04-25T22:46:18.435Z,99.90
2023-04-25T22:48:46.834Z,1.00
2023-04-25T22:51:14.133Z,1.00
2023-04-25T22:53:42.434Z,35.50
2023-04-25T22:56:11.328Z,1.00
2023-04-25T22:58:41.854Z,1.00
2023-04-25T23:01:08.982Z,1.00
2023-04-25T23:03:36.074Z,1.00
2023-04-25T23:06:03.023Z,99.90
2023-04-25T23:08:30.489Z,99.90
2023-04-25T23:10:57.667Z,1.00
2023-04-25T23:13:24.815Z,1.00
2023-04-25T23:15:51.865Z,1.00
2023-04-25T23:18:18.703Z,1.00
2023-04-25T23:20:46.040Z,1.00
2023-04-25T23:23:12.836Z,1.00
2023-04-25T23:25:42.525Z,1.00
2023-04-25T23:28:09.315Z,1.00
2023-04-25T23:30:36.477Z,99.90
2023-04-25T23:33:04.223Z,1.00
2023-04-25T23:35:31.318Z,1.00
2023-04-25T23:37:58.455Z,1.00
2023-04-25T23:40:25.454Z,1.00
2023-04-25T23:42:52.274Z,1.00
2023-04-25T23:45:19.108Z,1.00
2023-04-25T23:47:46.641Z,99.90
2023-04-25T23:50:13.589Z,1.00
2023-04-25T23:52:40.438Z,1.00
2023-04-25T23:55:07.461Z,1.00
2023-04-25T23:57:34.286Z,1.00
